Time;durP1;ratioP1;P1;durP2;ratioP2;P2;SDS_P1;SDS_P2;PMS_P1;PMS_P2;Temp;Humidity;BMP_temperature;BMP_pressure;BME280_temperature;BME280_humidity;BME280_pressure;Samples;Min_cycle;Max_cycle;Signal;HPM_P1;HPM_P2
2021/12/31 00:01:29;;;;;;;;;;;21.90;53.50;;;;;;6339840;27;20777;-43
2021/12/31 00:04:31;;;;;;;;;;;22.40;53.70;;;;;;6345626;27;20159;-44
2021/12/31 00:07:33;;;;;;;;;;;21.80;53.40;;;;;;6335325;27;19959;-48
2021/12/31 00:10:35;;;;;;;;;;;22.00;53.40;;;;;;6330002;27;21149;-49
2021/12/31 00:13:36;;;;;;;;;;;21.90;53.40;;;;;;6347918;27;20041;-43
2021/12/31 00:16:37;;;;;;;;;;;22.20;53.60;;;;;;6332452;27;19981;-45
2021/12/31 00:19:43;;;;;;;;;;;21.90;53.40;;;;;;6328549;27;19927;-45
2021/12/31 00:23:01;;;;;;;;;;;21.90;53.50;;;;;;6327278;27;20905;-44
2021/12/31 00:26:03;;;;;;;;;;;22.40;53.60;;;;;;6326476;27;20533;-48
2021/12/31 00:29:05;;;;;;;;;;;22.30;53.60;;;;;;6325766;27;19992;-46
2021/12/31 00:32:06;;;;;;;;;;;21.90;53.40;;;;;;6339944;27;20053;-43
2021/12/31 00:35:08;;;;;;;;;;;21.90;53.40;;;;;;6336049;27;19927;-46
2021/12/31 00:38:09;;;;;;;;;;;22.30;53.50;;;;;;6299125;27;19924;-48
2021/12/31 00:41:11;;;;;;;;;;;21.80;53.40;;;;;;6324268;27;20693;-45
2021/12/31 00:44:12;;;;;;;;;;;21.90;53.30;;;;;;6332753;27;19967;-43
2021/12/31 00:47:14;;;;;;;;;;;21.90;53.40;;;;;;6328498;27;19927;-48
2021/12/31 00:50:15;;;;;;;;;;;21.90;53.40;;;;;;6326775;27;19996;-46
2021/12/31 00:53:17;;;;;;;;;;;22.10;53.40;;;;;;6343515;27;19976;-47
2021/12/31 00:56:19;;;;;;;;;;;22.50;53.70;;;;;;6322035;27;20018;-46
2021/12/31 00:59:21;;;;;;;;;;;22.20;53.60;;;;;;6348868;27;19966;-47
2021/12/31 01:02:25;;;;;;;;;;;22.00;53.50;;;;;;6332762;27;20486;-48
2021/12/31 01:05:27;;;;;;;;;;;22.00;53.40;;;;;;6342726;27;19923;-47
2021/12/31 01:08:28;;;;;;;;;;;21.70;53.30;;;;;;6344018;27;20371;-46
2021/12/31 01:11:31;;;;;;;;;;;22.10;53.50;;;;;;6330986;27;20531;-46
2021/12/31 01:14:35;;;;;;;;;;;22.00;53.40;;;;;;6330824;27;19981;-46
2021/12/31 01:17:48;;;;;;;;;;;22.10;53.50;;;;;;6332576;27;20042;-45
2021/12/31 01:20:49;;;;;;;;;;;21.70;53.30;;;;;;6329808;27;20109;-46
2021/12/31 01:23:51;;;;;;;;;;;22.30;53.70;;;;;;6349087;27;19974;-48
2021/12/31 01:26:53;;;;;;;;;;;22.20;53.40;;;;;;6350813;27;20026;-47
2021/12/31 01:29:54;;;;;;;;;;;21.90;53.30;;;;;;6334852;27;20690;-46
2021/12/31 01:32:55;;;;;;;;;;;21.90;53.30;;;;;;6329612;27;19972;-43
2021/12/31 01:35:57;;;;;;;;;;;21.90;53.30;;;;;;6331578;27;19924;-48
2021/12/31 01:38:58;;;;;;;;;;;21.90;53.40;;;;;;6333162;27;20443;-46
2021/12/31 01:42:01;;;;;;;;;;;21.80;53.40;;;;;;6328426;27;22401;-45
2021/12/31 01:45:05;;;;;;;;;;;21.80;53.30;;;;;;6330780;27;19962;-44
2021/12/31 01:48:07;;;;;;;;;;;21.90;53.30;;;;;;6329154;27;20081;-46
2021/12/31 01:51:08;;;;;;;;;;;21.70;53.30;;;;;;6330606;27;20047;-43
2021/12/31 01:54:10;;;;;;;;;;;21.60;53.30;;;;;;6334452;27;20011;-46
2021/12/31 01:57:12;;;;;;;;;;;22.20;53.50;;;;;;6337760;27;20050;-48
2021/12/31 02:00:14;;;;;;;;;;;22.00;53.40;;;;;;6338011;27;19935;-45
2021/12/31 02:03:17;;;;;;;;;;;21.60;53.20;;;;;;6354746;27;19932;-46
2021/12/31 02:06:19;;;;;;;;;;;21.90;53.40;;;;;;6350184;27;19953;-46
2021/12/31 02:09:21;;;;;;;;;;;21.90;53.40;;;;;;6336756;27;19937;-48
2021/12/31 02:12:22;;;;;;;;;;;21.80;53.40;;;;;;6348772;27;20571;-44
2021/12/31 02:15:25;;;;;;;;;;;21.80;53.30;;;;;;6343477;27;20009;-47
2021/12/31 02:18:29;;;;;;;;;;;21.90;53.20;;;;;;6339561;27;19929;-46
2021/12/31 02:21:31;;;;;;;;;;;21.70;53.20;;;;;;6358181;27;19993;-48
2021/12/31 02:24:35;;;;;;;;;;;21.90;53.30;;;;;;6334174;27;20067;-48
2021/12/31 02:27:38;;;;;;;;;;;21.90;53.40;;;;;;6341566;27;20061;-44
2021/12/31 02:30:39;;;;;;;;;;;21.50;53.10;;;;;;6333317;27;19991;-46
2021/12/31 02:33:42;;;;;;;;;;;22.10;53.30;;;;;;6334045;27;19986;-45
2021/12/31 02:36:45;;;;;;;;;;;22.00;53.30;;;;;;6344980;27;19958;-46
2021/12/31 02:39:46;;;;;;;;;;;21.80;53.30;;;;;;6343756;27;21201;-45
2021/12/31 02:42:47;;;;;;;;;;;21.70;53.30;;;;;;6338126;27;20018;-45
2021/12/31 02:45:51;;;;;;;;;;;21.90;53.40;;;;;;6336570;27;19924;-45
2021/12/31 02:48:56;;;;;;;;;;;21.80;53.40;;;;;;6332915;27;20034;-48
2021/12/31 02:52:02;;;;;;;;;;;21.60;53.20;;;;;;6342681;27;20131;-46
2021/12/31 02:55:04;;;;;;;;;;;21.70;53.20;;;;;;6360455;27;20640;-44
2021/12/31 02:58:06;;;;;;;;;;;22.30;53.50;;;;;;6327790;27;19974;-44
2021/12/31 03:01:08;;;;;;;;;;;21.60;53.20;;;;;;6344605;27;19923;-44
2021/12/31 03:04:10;;;;;;;;;;;21.70;53.20;;;;;;6326620;27;19927;-44
2021/12/31 03:07:12;;;;;;;;;;;21.60;53.10;;;;;;6338775;27;20068;-44
2021/12/31 03:10:14;;;;;;;;;;;22.10;53.50;;;;;;6335105;27;19923;-44
2021/12/31 03:13:16;;;;;;;;;;;22.00;53.40;;;;;;6349244;27;19934;-45
2021/12/31 03:16:19;;;;;;;;;;;21.90;53.30;;;;;;6332727;27;19955;-43
2021/12/31 03:19:21;;;;;;;;;;;22.00;53.30;;;;;;6325737;27;19988;-43
2021/12/31 03:22:25;;;;;;;;;;;21.60;53.30;;;;;;6328034;27;20069;-44
2021/12/31 03:25:26;;;;;;;;;;;21.60;53.10;;;;;;6330461;27;20030;-43
2021/12/31 03:28:27;;;;;;;;;;;21.90;53.40;;;;;;6328278;27;20051;-43
2021/12/31 03:31:29;;;;;;;;;;;22.00;53.40;;;;;;6332767;27;19958;-44
2021/12/31 03:34:30;;;;;;;;;;;21.90;53.40;;;;;;6343427;27;20272;-43
2021/12/31 03:37:32;;;;;;;;;;;21.70;53.30;;;;;;6326372;27;20200;-43
2021/12/31 03:40:34;;;;;;;;;;;21.60;53.20;;;;;;6326572;27;20371;-43
2021/12/31 03:43:35;;;;;;;;;;;21.80;53.30;;;;;;6327305;27;19927;-44
2021/12/31 03:46:36;;;;;;;;;;;21.50;53.20;;;;;;6329698;27;20149;-43
2021/12/31 03:49:38;;;;;;;;;;;21.90;53.40;;;;;;6326438;27;20405;-46
2021/12/31 03:52:40;;;;;;;;;;;21.70;53.30;;;;;;6351642;27;20018;-44
2021/12/31 03:55:42;;;;;;;;;;;21.60;53.20;;;;;;6317495;27;20687;-46
2021/12/31 03:58:43;;;;;;;;;;;22.10;53.40;;;;;;6334991;27;20042;-44
2021/12/31 04:01:44;;;;;;;;;;;21.60;53.20;;;;;;6344638;27;19923;-43
2021/12/31 04:04:46;;;;;;;;;;;21.60;53.20;;;;;;6333851;27;19923;-44
2021/12/31 04:07:48;;;;;;;;;;;21.60;53.20;;;;;;6341805;27;20057;-44
2021/12/31 04:10:49;;;;;;;;;;;21.50;53.10;;;;;;6337739;27;20328;-45
2021/12/31 04:13:51;;;;;;;;;;;21.70;53.30;;;;;;6332552;27;20008;-45
2021/12/31 04:16:52;;;;;;;;;;;21.50;53.20;;;;;;6329708;27;19959;-47
2021/12/31 04:19:56;;;;;;;;;;;21.60;53.20;;;;;;6320826;27;19923;-43
2021/12/31 04:22:59;;;;;;;;;;;21.40;53.00;;;;;;6328997;27;19934;-45
2021/12/31 04:26:00;;;;;;;;;;;22.00;53.40;;;;;;6347745;27;20856;-44
2021/12/31 04:29:02;;;;;;;;;;;21.90;53.20;;;;;;6315910;27;19946;-48
2021/12/31 04:32:04;;;;;;;;;;;21.70;53.20;;;;;;6335620;27;19923;-44
2021/12/31 04:35:06;;;;;;;;;;;21.50;53.00;;;;;;6334062;27;19980;-45
2021/12/31 04:38:08;;;;;;;;;;;21.50;52.90;;;;;;6332140;27;20691;-46
2021/12/31 04:41:09;;;;;;;;;;;21.60;53.00;;;;;;6325288;27;20116;-46
2021/12/31 04:44:10;;;;;;;;;;;21.50;52.90;;;;;;6341022;27;20112;-45
2021/12/31 04:47:11;;;;;;;;;;;21.70;53.10;;;;;;6341090;27;20675;-46
2021/12/31 04:50:13;;;;;;;;;;;21.60;53.00;;;;;;6328293;27;20086;-46
2021/12/31 04:53:15;;;;;;;;;;;21.80;53.10;;;;;;6340022;27;19955;-44
2021/12/31 04:56:16;;;;;;;;;;;21.70;53.00;;;;;;6332448;27;20034;-47
2021/12/31 04:59:18;;;;;;;;;;;21.80;53.00;;;;;;6354736;27;19970;-44
2021/12/31 05:02:19;;;;;;;;;;;21.70;52.90;;;;;;6339580;27;19971;-47
2021/12/31 05:05:21;;;;;;;;;;;21.50;52.90;;;;;;6340227;27;19923;-47
2021/12/31 05:08:23;;;;;;;;;;;21.50;53.00;;;;;;6347497;27;19930;-46
2021/12/31 05:11:24;;;;;;;;;;;21.50;52.90;;;;;;6330494;27;20015;-43
2021/12/31 05:14:25;;;;;;;;;;;21.60;53.00;;;;;;6326771;27;20607;-44
2021/12/31 05:17:27;;;;;;;;;;;21.50;52.90;;;;;;6327236;27;19924;-43
2021/12/31 05:20:29;;;;;;;;;;;21.50;52.80;;;;;;6337148;27;20261;-43
2021/12/31 05:23:31;;;;;;;;;;;21.60;53.10;;;;;;6313963;27;20477;-43
2021/12/31 05:26:34;;;;;;;;;;;21.70;53.00;;;;;;6320773;27;19927;-42
2021/12/31 05:29:36;;;;;;;;;;;22.00;53.10;;;;;;6327276;27;20022;-43
2021/12/31 05:32:37;;;;;;;;;;;21.90;53.10;;;;;;6299311;27;20568;-44
2021/12/31 05:35:39;;;;;;;;;;;21.80;52.90;;;;;;6326622;27;20577;-44
2021/12/31 05:38:41;;;;;;;;;;;21.60;52.90;;;;;;6344080;27;20068;-44
2021/12/31 05:41:42;;;;;;;;;;;21.60;52.90;;;;;;6328114;27;19924;-44
2021/12/31 05:44:44;;;;;;;;;;;21.90;53.10;;;;;;6318953;27;19927;-44
2021/12/31 05:47:47;;;;;;;;;;;21.60;52.90;;;;;;6322052;27;20004;-45
2021/12/31 05:50:48;;;;;;;;;;;21.80;53.00;;;;;;6328258;27;19928;-44
2021/12/31 05:53:50;;;;;;;;;;;21.70;53.00;;;;;;6342750;27;20749;-44
2021/12/31 05:56:52;;;;;;;;;;;22.20;53.20;;;;;;6343564;27;19927;-45
2021/12/31 05:59:53;;;;;;;;;;;21.90;53.10;;;;;;6329290;27;20366;-44
2021/12/31 06:02:55;;;;;;;;;;;22.20;53.20;;;;;;6333555;27;19924;-47
2021/12/31 06:05:57;;;;;;;;;;;21.40;53.30;;;;;;6319244;27;20092;-43
2021/12/31 06:08:58;;;;;;;;;;;21.50;52.80;;;;;;6333067;27;20377;-43
2021/12/31 06:12:00;;;;;;;;;;;21.40;52.70;;;;;;6314859;27;20536;-43
2021/12/31 06:15:04;;;;;;;;;;;21.60;52.80;;;;;;6337055;27;19934;-44
2021/12/31 06:18:05;;;;;;;;;;;21.40;52.70;;;;;;6336686;27;19965;-45
2021/12/31 06:21:06;;;;;;;;;;;21.60;52.90;;;;;;6320412;27;20890;-43
2021/12/31 06:24:09;;;;;;;;;;;21.40;52.80;;;;;;6311438;27;20075;-45
2021/12/31 06:27:10;;;;;;;;;;;21.90;53.00;;;;;;6303793;27;20037;-43
2021/12/31 06:30:12;;;;;;;;;;;22.00;53.00;;;;;;6328981;27;21193;-43
2021/12/31 06:33:13;;;;;;;;;;;21.90;53.00;;;;;;6315555;27;20018;-44
2021/12/31 06:36:15;;;;;;;;;;;21.80;53.00;;;;;;6315880;27;19934;-43
2021/12/31 06:39:16;;;;;;;;;;;21.80;53.00;;;;;;6306949;27;19958;-43
2021/12/31 06:42:18;;;;;;;;;;;21.50;52.80;;;;;;6297371;27;19932;-43
2021/12/31 06:45:19;;;;;;;;;;;21.80;52.80;;;;;;6312007;27;19933;-45
2021/12/31 06:48:20;;;;;;;;;;;21.60;52.70;;;;;;6323786;27;20524;-45
2021/12/31 06:51:22;;;;;;;;;;;21.60;52.60;;;;;;6329284;27;20041;-43
2021/12/31 06:54:24;;;;;;;;;;;21.80;52.70;;;;;;6329729;27;21561;-42
2021/12/31 06:57:26;;;;;;;;;;;21.90;52.60;;;;;;6326510;27;19923;-44
2021/12/31 07:00:27;;;;;;;;;;;22.00;52.60;;;;;;6328569;27;19926;-46
2021/12/31 07:03:28;;;;;;;;;;;21.70;52.40;;;;;;6307641;27;20031;-43
2021/12/31 07:06:30;;;;;;;;;;;22.60;52.90;;;;;;6320217;27;19927;-47
2021/12/31 07:09:32;;;;;;;;;;;21.70;52.40;;;;;;6320723;27;20041;-46
2021/12/31 07:12:34;;;;;;;;;;;21.80;52.30;;;;;;6302821;27;20819;-44
2021/12/31 07:15:36;;;;;;;;;;;21.80;52.20;;;;;;6301227;27;19945;-47
2021/12/31 07:18:38;;;;;;;;;;;21.90;52.20;;;;;;6301577;27;20697;-47
2021/12/31 07:21:39;;;;;;;;;;;21.60;52.10;;;;;;6305614;27;19933;-44
2021/12/31 07:24:41;;;;;;;;;;;21.90;52.10;;;;;;6318686;27;19935;-45
2021/12/31 07:27:43;;;;;;;;;;;22.00;52.10;;;;;;6307802;27;20035;-45
2021/12/31 07:30:44;;;;;;;;;;;22.30;52.20;;;;;;6306948;27;20046;-48
2021/12/31 07:33:46;;;;;;;;;;;21.90;52.00;;;;;;6304781;27;19924;-46
2021/12/31 07:36:50;;;;;;;;;;;21.80;52.00;;;;;;6297205;27;19928;-44
2021/12/31 07:39:59;;;;;;;;;;;22.00;52.00;;;;;;6285368;27;20008;-46
2021/12/31 07:43:00;;;;;;;;;;;22.00;52.00;;;;;;6295020;27;19973;-45
2021/12/31 07:46:01;;;;;;;;;;;22.30;52.20;;;;;;6302685;27;19927;-46
2021/12/31 07:49:03;;;;;;;;;;;21.90;51.90;;;;;;6292331;27;20613;-45
2021/12/31 07:52:04;;;;;;;;;;;22.10;52.00;;;;;;6281684;27;19927;-45
2021/12/31 07:55:06;;;;;;;;;;;22.70;51.80;;;;;;6286521;27;20055;-43
2021/12/31 07:58:08;;;;;;;;;;;22.30;52.10;;;;;;6282563;27;19927;-45
2021/12/31 08:01:09;;;;;;;;;;;22.20;52.10;;;;;;6284918;27;19927;-45
2021/12/31 08:04:11;;;;;;;;;;;22.30;52.10;;;;;;6252836;27;20046;-46
2021/12/31 08:07:13;;;;;;;;;;;22.00;51.90;;;;;;6273628;27;20597;-43
2021/12/31 08:10:15;;;;;;;;;;;22.00;51.80;;;;;;6275926;27;19931;-45
2021/12/31 08:13:36;;;;;;;;;;;22.40;52.00;;;;;;6272223;27;21612;-47
2021/12/31 08:16:37;;;;;;;;;;;22.40;52.00;;;;;;6263095;27;19941;-47
2021/12/31 08:19:39;;;;;;;;;;;22.10;51.80;;;;;;6273626;27;19932;-45
2021/12/31 08:22:40;;;;;;;;;;;22.10;52.00;;;;;;6292705;27;20026;-44
2021/12/31 08:25:42;;;;;;;;;;;22.00;51.80;;;;;;6283361;27;19927;-44
2021/12/31 08:28:44;;;;;;;;;;;22.50;52.00;;;;;;6265510;27;19933;-45
2021/12/31 08:31:45;;;;;;;;;;;22.40;52.00;;;;;;6271829;27;21777;-44
2021/12/31 08:34:47;;;;;;;;;;;22.40;51.90;;;;;;6250486;27;19927;-43
2021/12/31 08:37:48;;;;;;;;;;;22.10;51.80;;;;;;6295714;27;21650;-45
2021/12/31 08:40:50;;;;;;;;;;;22.10;51.70;;;;;;6284713;27;19931;-45
2021/12/31 08:43:55;;;;;;;;;;;22.00;51.60;;;;;;6288912;27;21358;-43
2021/12/31 08:46:56;;;;;;;;;;;22.40;51.80;;;;;;6292731;27;19939;-43
2021/12/31 08:49:58;;;;;;;;;;;22.10;51.70;;;;;;6291589;27;19927;-43
2021/12/31 08:52:59;;;;;;;;;;;22.30;51.70;;;;;;6292986;27;20029;-47
2021/12/31 08:56:01;;;;;;;;;;;22.00;51.60;;;;;;6280072;27;19934;-44
2021/12/31 08:59:03;;;;;;;;;;;22.30;51.60;;;;;;6274485;27;19931;-47
2021/12/31 09:02:04;;;;;;;;;;;22.50;51.80;;;;;;6281959;27;20085;-43
2021/12/31 09:05:06;;;;;;;;;;;22.30;51.60;;;;;;6284263;27;19937;-44
2021/12/31 09:08:08;;;;;;;;;;;22.10;51.50;;;;;;6264652;27;21186;-45
2021/12/31 09:11:10;;;;;;;;;;;22.20;51.50;;;;;;6285963;27;19951;-44
2021/12/31 09:14:11;;;;;;;;;;;22.50;52.10;;;;;;6288943;27;20324;-43
2021/12/31 09:17:13;;;;;;;;;;;22.30;51.50;;;;;;6241345;27;19927;-43
2021/12/31 09:20:14;;;;;;;;;;;22.70;51.80;;;;;;6261134;27;20473;-43
2021/12/31 09:23:16;;;;;;;;;;;22.30;51.50;;;;;;6262818;27;20118;-43
2021/12/31 09:26:18;;;;;;;;;;;22.70;51.50;;;;;;6271876;27;21278;-44
2021/12/31 09:29:21;;;;;;;;;;;22.50;51.60;;;;;;6251971;27;19934;-47
2021/12/31 09:32:23;;;;;;;;;;;22.60;52.00;;;;;;6269688;27;21248;-43
2021/12/31 09:35:24;;;;;;;;;;;22.50;51.60;;;;;;6280671;27;20113;-43
2021/12/31 09:38:26;;;;;;;;;;;22.30;51.50;;;;;;6278890;27;19971;-43
2021/12/31 09:41:28;;;;;;;;;;;22.20;51.40;;;;;;6278656;27;19927;-45
2021/12/31 09:44:29;;;;;;;;;;;22.30;51.40;;;;;;6281979;27;22298;-45
2021/12/31 09:47:30;;;;;;;;;;;22.70;51.60;;;;;;6271002;27;20833;-45
2021/12/31 09:50:32;;;;;;;;;;;22.40;51.40;;;;;;6280690;27;20038;-47
2021/12/31 09:53:33;;;;;;;;;;;22.60;51.50;;;;;;6282538;27;19927;-43
2021/12/31 09:56:39;;;;;;;;;;;22.40;51.40;;;;;;6294636;27;19927;-45
2021/12/31 09:59:41;;;;;;;;;;;22.30;51.30;;;;;;6285940;27;19927;-44
2021/12/31 10:02:42;;;;;;;;;;;22.40;51.30;;;;;;6266212;27;19935;-45
2021/12/31 10:05:45;;;;;;;;;;;22.50;51.40;;;;;;6284265;27;20854;-44
2021/12/31 10:08:47;;;;;;;;;;;22.40;51.20;;;;;;6272794;27;20889;-48
2021/12/31 10:11:49;;;;;;;;;;;22.70;51.40;;;;;;6286759;27;19920;-49
2021/12/31 10:14:57;;;;;;;;;;;22.50;51.30;;;;;;6292112;27;20104;-43
2021/12/31 10:18:07;;;;;;;;;;;22.60;51.40;;;;;;6264702;27;20013;-44
2021/12/31 10:21:09;;;;;;;;;;;22.80;51.40;;;;;;6294986;27;20008;-46
2021/12/31 10:24:20;;;;;;;;;;;22.50;51.30;;;;;;6307804;27;19934;-44
2021/12/31 10:27:23;;;;;;;;;;;22.60;51.30;;;;;;6299974;27;19927;-43
2021/12/31 10:30:26;;;;;;;;;;;22.80;51.40;;;;;;6295590;27;20038;-44
2021/12/31 10:33:39;;;;;;;;;;;22.40;51.20;;;;;;6278946;27;20633;-43
2021/12/31 10:36:40;;;;;;;;;;;22.40;51.20;;;;;;6273886;27;20096;-48
2021/12/31 10:39:43;;;;;;;;;;;22.80;51.40;;;;;;6290682;27;20716;-43
2021/12/31 10:42:48;;;;;;;;;;;22.80;51.40;;;;;;6285993;27;19955;-43
2021/12/31 10:45:58;;;;;;;;;;;22.80;51.40;;;;;;6288557;27;20080;-43
2021/12/31 10:49:06;;;;;;;;;;;23.40;51.80;;;;;;6288681;27;19928;-44
2021/12/31 10:52:10;;;;;;;;;;;22.60;51.40;;;;;;6283919;27;20668;-46
2021/12/31 10:55:19;;;;;;;;;;;22.90;51.50;;;;;;6264412;27;19932;-43
2021/12/31 10:58:21;;;;;;;;;;;22.70;51.40;;;;;;6283129;27;19931;-46
2021/12/31 11:01:24;;;;;;;;;;;22.60;51.40;;;;;;6284261;27;19927;-44
2021/12/31 11:04:28;;;;;;;;;;;23.00;51.50;;;;;;6293693;27;19927;-45
2021/12/31 11:07:31;;;;;;;;;;;22.50;51.30;;;;;;6294631;27;19999;-44
2021/12/31 11:10:50;;;;;;;;;;;22.50;51.20;;;;;;6293643;27;19927;-44
2021/12/31 11:13:53;;;;;;;;;;;22.90;51.50;;;;;;6279924;27;20118;-45
2021/12/31 11:16:54;;;;;;;;;;;22.70;51.40;;;;;;6280167;27;19927;-43
2021/12/31 11:19:56;;;;;;;;;;;22.90;51.50;;;;;;6271544;27;20026;-43
2021/12/31 11:22:57;;;;;;;;;;;22.80;51.40;;;;;;6243725;27;19928;-43
2021/12/31 11:26:26;;;;;;;;;;;22.50;51.30;;;;;;6274528;27;20157;-43
2021/12/31 11:29:36;;;;;;;;;;;22.60;51.30;;;;;;6296790;27;19934;-44
2021/12/31 11:32:53;;;;;;;;;;;22.50;51.20;;;;;;6291385;27;20094;-46
2021/12/31 11:35:59;;;;;;;;;;;23.00;51.50;;;;;;6272533;27;19928;-45
2021/12/31 11:39:12;;;;;;;;;;;23.00;51.50;;;;;;6309297;27;19927;-43
2021/12/31 11:42:24;;;;;;;;;;;22.70;51.40;;;;;;6291204;27;20455;-43
2021/12/31 11:45:26;;;;;;;;;;;22.60;51.20;;;;;;6284193;27;20368;-43
2021/12/31 11:48:42;;;;;;;;;;;22.70;51.30;;;;;;6295270;27;19931;-43
2021/12/31 11:51:57;;;;;;;;;;;22.60;51.20;;;;;;6293180;27;19919;-45
2021/12/31 11:55:13;;;;;;;;;;;23.00;51.40;;;;;;6306416;27;20029;-44
2021/12/31 11:58:27;;;;;;;;;;;22.70;51.20;;;;;;6275268;27;20290;-44
2021/12/31 12:01:38;;;;;;;;;;;22.80;51.40;;;;;;6289503;27;19927;-44
2021/12/31 12:04:41;;;;;;;;;;;22.70;51.20;;;;;;6289588;27;20377;-43
2021/12/31 12:07:46;;;;;;;;;;;22.90;51.20;;;;;;6301701;27;19928;-45
2021/12/31 12:10:48;;;;;;;;;;;22.60;51.20;;;;;;6317407;27;19970;-45
2021/12/31 12:14:10;;;;;;;;;;;22.70;51.20;;;;;;6300008;27;19928;-47
2021/12/31 12:17:12;;;;;;;;;;;23.10;51.40;;;;;;6268932;27;19935;-45
2021/12/31 12:20:18;;;;;;;;;;;22.80;51.30;;;;;;6300902;27;19927;-44
2021/12/31 12:23:23;;;;;;;;;;;22.70;51.30;;;;;;6291566;27;20042;-44
2021/12/31 12:26:24;;;;;;;;;;;22.70;51.20;;;;;;6304565;27;20054;-43
2021/12/31 12:29:26;;;;;;;;;;;22.70;51.20;;;;;;6303420;27;19928;-49
2021/12/31 12:32:32;;;;;;;;;;;22.70;51.20;;;;;;6295863;27;19928;-46
2021/12/31 12:35:36;;;;;;;;;;;22.90;51.30;;;;;;6279638;27;19934;-44
2021/12/31 12:38:38;;;;;;;;;;;22.80;51.30;;;;;;6269723;27;20860;-46
2021/12/31 12:41:39;;;;;;;;;;;22.90;51.30;;;;;;6287983;27;19995;-47
2021/12/31 12:44:41;;;;;;;;;;;22.80;51.30;;;;;;6294891;27;20011;-47
2021/12/31 12:47:50;;;;;;;;;;;23.00;51.40;;;;;;6295742;27;19934;-44
2021/12/31 12:50:51;;;;;;;;;;;22.80;51.30;;;;;;6288049;27;19939;-47
2021/12/31 12:53:53;;;;;;;;;;;23.10;51.40;;;;;;6293208;27;19931;-43
2021/12/31 12:56:54;;;;;;;;;;;22.80;51.30;;;;;;6285144;27;20812;-46
2021/12/31 12:59:55;;;;;;;;;;;22.80;51.30;;;;;;6283044;27;20012;-48
2021/12/31 13:03:02;;;;;;;;;;;22.90;51.40;;;;;;6264465;27;20124;-43
2021/12/31 13:06:09;;;;;;;;;;;23.20;51.50;;;;;;6265884;27;20014;-45
2021/12/31 13:09:13;;;;;;;;;;;22.90;51.40;;;;;;6292452;27;19966;-45
2021/12/31 13:12:17;;;;;;;;;;;23.10;51.60;;;;;;6275827;27;19935;-45
2021/12/31 13:15:19;;;;;;;;;;;22.80;51.50;;;;;;6284122;27;20046;-47
2021/12/31 13:18:25;;;;;;;;;;;22.80;51.50;;;;;;6284995;27;19934;-46
2021/12/31 13:21:26;;;;;;;;;;;22.50;51.30;;;;;;6289205;27;19922;-44
2021/12/31 13:24:28;;;;;;;;;;;22.80;51.50;;;;;;6259921;27;19927;-44
2021/12/31 13:27:31;;;;;;;;;;;22.70;51.50;;;;;;6276342;27;19935;-45
2021/12/31 13:30:45;;;;;;;;;;;22.90;51.60;;;;;;6272526;27;19995;-44
2021/12/31 13:33:48;;;;;;;;;;;22.80;51.50;;;;;;6281054;27;20050;-44
2021/12/31 13:36:51;;;;;;;;;;;23.10;51.80;;;;;;6291816;27;19927;-45
2021/12/31 13:40:05;;;;;;;;;;;23.10;51.80;;;;;;6280119;27;19927;-45
2021/12/31 13:43:08;;;;;;;;;;;22.70;51.50;;;;;;6295280;27;19927;-46
2021/12/31 13:46:11;;;;;;;;;;;22.70;51.60;;;;;;6288853;27;20043;-45
2021/12/31 13:49:14;;;;;;;;;;;22.50;51.40;;;;;;6291115;27;19927;-44
2021/12/31 13:52:16;;;;;;;;;;;23.10;51.70;;;;;;6296193;27;19928;-43
2021/12/31 13:55:18;;;;;;;;;;;23.60;52.00;;;;;;6298189;27;19927;-43
2021/12/31 13:58:25;;;;;;;;;;;22.70;51.60;;;;;;6297342;27;19974;-47
2021/12/31 14:01:27;;;;;;;;;;;22.80;51.60;;;;;;6284619;27;20058;-47
2021/12/31 14:04:30;;;;;;;;;;;22.80;51.70;;;;;;6302137;27;20050;-44
2021/12/31 14:07:35;;;;;;;;;;;23.00;51.80;;;;;;6303200;27;20952;-45
2021/12/31 14:10:36;;;;;;;;;;;22.90;51.60;;;;;;6270179;27;20794;-45
2021/12/31 14:13:38;;;;;;;;;;;23.00;51.80;;;;;;6283278;27;19927;-43
2021/12/31 14:16:39;;;;;;;;;;;23.00;51.90;;;;;;6294117;27;19966;-43
2021/12/31 14:19:42;;;;;;;;;;;23.00;51.80;;;;;;6290183;27;19920;-45
2021/12/31 14:22:43;;;;;;;;;;;22.70;51.60;;;;;;6299723;27;20046;-45
2021/12/31 14:25:47;;;;;;;;;;;22.90;51.80;;;;;;6282337;27;20755;-43
2021/12/31 14:28:48;;;;;;;;;;;22.60;51.60;;;;;;6299352;27;19920;-43
2021/12/31 14:31:49;;;;;;;;;;;22.60;51.60;;;;;;6296954;27;20755;-46
2021/12/31 14:34:52;;;;;;;;;;;22.60;51.60;;;;;;6298036;27;20030;-47
2021/12/31 14:37:54;;;;;;;;;;;22.70;51.70;;;;;;6299054;27;20776;-46
2021/12/31 14:41:02;;;;;;;;;;;23.00;51.90;;;;;;6275968;27;20027;-47
2021/12/31 14:44:04;;;;;;;;;;;22.80;51.80;;;;;;6293022;27;20113;-45
2021/12/31 14:47:06;;;;;;;;;;;23.10;52.00;;;;;;6300508;27;19927;-45
2021/12/31 14:50:09;;;;;;;;;;;22.50;51.80;;;;;;6301760;27;20003;-44
2021/12/31 14:53:11;;;;;;;;;;;22.80;51.90;;;;;;6285234;27;19990;-45
2021/12/31 14:56:12;;;;;;;;;;;22.70;51.80;;;;;;6311322;27;19925;-46
2021/12/31 14:59:14;;;;;;;;;;;23.00;52.00;;;;;;6298724;27;19931;-43
2021/12/31 15:02:15;;;;;;;;;;;22.70;51.80;;;;;;6260634;27;19928;-45
2021/12/31 15:05:17;;;;;;;;;;;22.80;51.90;;;;;;6287796;27;19927;-47
2021/12/31 15:08:19;;;;;;;;;;;22.70;51.90;;;;;;6307484;27;20022;-43
2021/12/31 15:11:20;;;;;;;;;;;22.90;52.00;;;;;;6316866;27;19934;-43
2021/12/31 15:14:22;;;;;;;;;;;22.90;52.00;;;;;;6290742;27;20831;-43
2021/12/31 15:17:23;;;;;;;;;;;22.50;51.80;;;;;;6301652;27;19952;-47
2021/12/31 15:20:25;;;;;;;;;;;22.80;52.00;;;;;;6312476;27;20009;-43
2021/12/31 15:23:28;;;;;;;;;;;22.70;51.90;;;;;;6301905;27;19995;-43
2021/12/31 15:26:30;;;;;;;;;;;22.70;52.00;;;;;;6294248;27;19923;-46
2021/12/31 15:29:31;;;;;;;;;;;22.80;52.00;;;;;;6309119;27;20082;-47
2021/12/31 15:32:32;;;;;;;;;;;23.00;52.10;;;;;;6306941;27;20000;-46
2021/12/31 15:35:34;;;;;;;;;;;22.60;51.90;;;;;;6305627;27;20745;-44
2021/12/31 15:38:36;;;;;;;;;;;22.60;51.90;;;;;;6297566;27;20167;-44
2021/12/31 15:41:38;;;;;;;;;;;23.00;52.20;;;;;;6301804;27;19935;-46
2021/12/31 15:44:40;;;;;;;;;;;22.90;52.20;;;;;;6284982;27;20152;-43
2021/12/31 15:47:41;;;;;;;;;;;22.90;52.10;;;;;;6287375;27;20615;-43
2021/12/31 15:50:43;;;;;;;;;;;22.60;52.00;;;;;;6305701;27;20022;-43
2021/12/31 15:53:45;;;;;;;;;;;22.70;52.00;;;;;;6299138;27;19931;-44
2021/12/31 15:56:46;;;;;;;;;;;23.00;52.80;;;;;;6301067;27;20145;-43
2021/12/31 15:59:49;;;;;;;;;;;22.90;52.20;;;;;;6306898;27;20417;-43
2021/12/31 16:02:50;;;;;;;;;;;22.90;52.20;;;;;;6277425;27;20275;-43
2021/12/31 16:05:52;;;;;;;;;;;22.90;52.30;;;;;;6306954;27;20082;-43
2021/12/31 16:08:55;;;;;;;;;;;22.90;52.20;;;;;;6304782;27;20140;-44
2021/12/31 16:11:56;;;;;;;;;;;23.10;52.30;;;;;;6297726;27;19927;-43
2021/12/31 16:14:58;;;;;;;;;;;22.50;52.00;;;;;;6294043;27;20043;-46
2021/12/31 16:17:59;;;;;;;;;;;22.50;52.00;;;;;;6291317;27;20443;-44
2021/12/31 16:21:01;;;;;;;;;;;22.90;52.20;;;;;;6295503;27;20222;-43
2021/12/31 16:24:03;;;;;;;;;;;22.70;52.20;;;;;;6313495;27;20333;-45
2021/12/31 16:27:04;;;;;;;;;;;22.60;52.20;;;;;;6308588;27;20045;-44
2021/12/31 16:30:08;;;;;;;;;;;22.70;52.20;;;;;;6291741;27;20446;-43
2021/12/31 16:33:10;;;;;;;;;;;22.90;52.30;;;;;;6292905;27;20032;-43
2021/12/31 16:36:12;;;;;;;;;;;22.60;52.20;;;;;;6289706;27;20061;-43
2021/12/31 16:39:13;;;;;;;;;;;22.70;52.20;;;;;;6293814;27;20439;-44
2021/12/31 16:42:16;;;;;;;;;;;22.90;52.30;;;;;;6305917;27;20396;-43
2021/12/31 16:45:18;;;;;;;;;;;23.00;52.40;;;;;;6306233;27;20453;-43
2021/12/31 16:48:19;;;;;;;;;;;22.70;52.30;;;;;;6294143;27;20798;-43
2021/12/31 16:51:21;;;;;;;;;;;22.90;52.40;;;;;;6293408;27;20037;-43
2021/12/31 16:54:22;;;;;;;;;;;22.50;52.20;;;;;;6299309;27;19960;-43
2021/12/31 16:57:24;;;;;;;;;;;22.60;52.30;;;;;;6297942;27;19927;-43
2021/12/31 17:00:25;;;;;;;;;;;22.60;52.30;;;;;;6308246;27;21226;-44
2021/12/31 17:03:27;;;;;;;;;;;22.70;52.30;;;;;;6307026;27;20595;-43
2021/12/31 17:06:29;;;;;;;;;;;22.80;52.40;;;;;;6297446;27;20621;-43
2021/12/31 17:09:30;;;;;;;;;;;23.00;52.50;;;;;;6306717;27;19949;-43
2021/12/31 17:12:32;;;;;;;;;;;22.90;52.50;;;;;;6292823;27;20383;-43
2021/12/31 17:15:34;;;;;;;;;;;23.00;52.60;;;;;;6292594;27;20128;-43
2021/12/31 17:18:36;;;;;;;;;;;22.80;52.50;;;;;;6295559;27;19939;-45
2021/12/31 17:21:38;;;;;;;;;;;22.50;52.30;;;;;;6319187;27;19923;-45
2021/12/31 17:24:40;;;;;;;;;;;22.70;52.40;;;;;;6288718;27;20227;-44
2021/12/31 17:27:41;;;;;;;;;;;22.50;52.30;;;;;;6298949;27;20046;-43
2021/12/31 17:30:42;;;;;;;;;;;22.60;52.40;;;;;;6292733;27;19955;-43
2021/12/31 17:33:44;;;;;;;;;;;22.40;52.30;;;;;;6307741;27;20061;-42
2021/12/31 17:36:46;;;;;;;;;;;22.50;52.40;;;;;;6313388;27;20200;-43
2021/12/31 17:39:47;;;;;;;;;;;22.30;52.30;;;;;;6290984;27;20409;-42
2021/12/31 17:42:48;;;;;;;;;;;23.00;52.70;;;;;;6299918;27;20235;-43